Time;durP1;ratioP1;P1;durP2;ratioP2;P2;SDS_P1;SDS_P2;PMS_P1;PMS_P2;Temp;Humidity;BMP_temperature;BMP_pressure;BME280_temperature;BME280_humidity;BME280_pressure;Samples;Min_cycle;Max_cycle;Signal;HPM_P1;HPM_P2
2022/06/22 00:00:50;;;;;;;1.47;1.47;;;;;;;;;;1735431;81;26960;-56
2022/06/22 00:03:18;;;;;;;1.37;1.37;;;;;;;;;;1742053;81;26794;-54
2022/06/22 00:05:48;;;;;;;1.50;1.50;;;;;;;;;;1728281;81;26946;-55
2022/06/22 00:08:17;;;;;;;1.75;1.50;;;;;;;;;;1749399;81;26785;-54
2022/06/22 00:10:55;;;;;;;1.30;1.30;;;;;;;;;;1735687;81;27207;-52
2022/06/22 00:13:24;;;;;;;1.50;1.40;;;;;;;;;;1728448;81;26749;-53
2022/06/22 00:15:59;;;;;;;1.40;1.40;;;;;;;;;;1750139;80;26371;-53
2022/06/22 00:18:28;;;;;;;1.57;1.57;;;;;;;;;;1742786;81;26810;-55
2022/06/22 00:21:00;;;;;;;1.30;1.30;;;;;;;;;;1770129;79;26678;-52
2022/06/22 00:23:29;;;;;;;1.50;1.50;;;;;;;;;;1764721;79;26416;-52
2022/06/22 00:25:58;;;;;;;1.40;1.40;;;;;;;;;;1749956;80;26311;-54
2022/06/22 00:28:27;;;;;;;1.40;1.40;;;;;;;;;;1744464;80;26306;-53
2022/06/22 00:31:05;;;;;;;1.55;1.50;;;;;;;;;;1740379;81;26296;-52
2022/06/22 00:33:32;;;;;;;1.50;1.50;;;;;;;;;;1756817;80;26447;-53
2022/06/22 00:36:04;;;;;;;1.45;1.32;;;;;;;;;;1749024;80;26286;-51
2022/06/22 00:38:32;;;;;;;1.35;1.35;;;;;;;;;;1739801;80;26257;-55
2022/06/22 00:41:03;;;;;;;1.40;1.40;;;;;;;;;;1728533;80;26298;-52
2022/06/22 00:43:32;;;;;;;1.27;1.27;;;;;;;;;;1744674;80;26757;-51
2022/06/22 00:46:00;;;;;;;1.30;1.30;;;;;;;;;;1744320;81;26775;-54
2022/06/22 00:48:36;;;;;;;1.32;1.32;;;;;;;;;;1732120;82;26329;-52
2022/06/22 00:51:06;;;;;;;1.35;1.20;;;;;;;;;;1771930;79;26337;-54
2022/06/22 00:53:38;;;;;;;1.20;1.20;;;;;;;;;;1773684;79;26350;-54
2022/06/22 00:56:13;;;;;;;1.27;1.27;;;;;;;;;;1765745;79;26361;-55
2022/06/22 00:59:00;;;;;;;1.30;1.30;;;;;;;;;;1772397;79;26291;-50
2022/06/22 01:01:29;;;;;;;1.30;1.30;;;;;;;;;;1745167;80;26355;-57
2022/06/22 01:03:57;;;;;;;1.32;1.32;;;;;;;;;;1778832;79;26090;-54
2022/06/22 01:06:41;;;;;;;1.30;1.30;;;;;;;;;;1751181;80;26795;-54
2022/06/22 01:09:10;;;;;;;1.05;1.05;;;;;;;;;;1754859;80;26340;-53
2022/06/22 01:14:28;;;;;;;1.20;1.20;;;;;;;;;;1756960;79;26332;-51
2022/06/22 01:16:56;;;;;;;1.20;1.20;;;;;;;;;;1749270;80;26317;-54
2022/06/22 01:19:44;;;;;;;1.32;1.22;;;;;;;;;;1777172;79;26430;-52
2022/06/22 01:22:21;;;;;;;1.37;1.37;;;;;;;;;;1733921;80;26353;-50
2022/06/22 01:24:50;;;;;;;1.12;1.12;;;;;;;;;;1726443;81;26335;-54
2022/06/22 01:27:22;;;;;;;1.30;1.30;;;;;;;;;;1710610;80;26368;-51
2022/06/22 01:29:51;;;;;;;1.20;1.20;;;;;;;;;;1749239;80;26291;-53
2022/06/22 01:32:23;;;;;;;1.25;1.25;;;;;;;;;;1751650;80;26354;-52
2022/06/22 01:34:51;;;;;;;1.45;1.45;;;;;;;;;;1770204;80;26276;-52
2022/06/22 01:37:25;;;;;;;1.15;1.15;;;;;;;;;;1745019;80;26299;-51
2022/06/22 01:39:54;;;;;;;1.40;1.30;;;;;;;;;;1749140;80;27376;-52
2022/06/22 01:42:23;;;;;;;1.12;1.12;;;;;;;;;;1750600;80;26761;-50
2022/06/22 01:45:04;;;;;;;1.65;1.25;;;;;;;;;;1740661;81;27229;-56
2022/06/22 01:47:42;;;;;;;1.40;1.30;;;;;;;;;;1777807;79;26290;-52
2022/06/22 01:50:11;;;;;;;1.30;1.30;;;;;;;;;;1748093;81;26754;-56
2022/06/22 01:52:49;;;;;;;1.20;1.20;;;;;;;;;;1750154;81;26369;-54
2022/06/22 01:55:24;;;;;;;1.20;1.20;;;;;;;;;;1746586;80;26380;-53
2022/06/22 01:57:53;;;;;;;1.30;1.30;;;;;;;;;;1745468;80;26290;-50
2022/06/22 02:00:20;;;;;;;1.10;1.10;;;;;;;;;;1771392;80;26368;-49
2022/06/22 02:02:49;;;;;;;1.40;1.30;;;;;;;;;;1736116;80;26773;-53
2022/06/22 02:05:30;;;;;;;1.05;1.05;;;;;;;;;;1748335;80;26768;-52
2022/06/22 02:07:59;;;;;;;1.25;1.25;;;;;;;;;;1751260;80;26353;-53
2022/06/22 02:10:36;;;;;;;1.10;1.10;;;;;;;;;;1753000;80;26285;-55
2022/06/22 02:13:21;;;;;;;1.20;1.20;;;;;;;;;;1753502;80;26277;-52
2022/06/22 02:16:02;;;;;;;1.20;1.20;;;;;;;;;;1751672;80;25764;-51
2022/06/22 02:18:36;;;;;;;1.20;1.20;;;;;;;;;;1753363;80;26245;-51
2022/06/22 02:21:23;;;;;;;1.30;1.30;;;;;;;;;;1735488;81;26343;-53
2022/06/22 02:23:55;;;;;;;1.55;1.10;;;;;;;;;;1725824;82;26766;-51
2022/06/22 02:26:23;;;;;;;1.20;1.20;;;;;;;;;;1728571;82;26287;-50
2022/06/22 02:28:50;;;;;;;1.20;1.20;;;;;;;;;;1729646;82;26383;-53
2022/06/22 02:31:19;;;;;;;1.10;1.10;;;;;;;;;;1716244;82;26386;-54
2022/06/22 02:33:48;;;;;;;1.10;1.10;;;;;;;;;;1717750;82;26442;-53
2022/06/22 02:36:15;;;;;;;1.30;1.30;;;;;;;;;;1719256;82;26314;-53
2022/06/22 02:38:44;;;;;;;1.30;1.20;;;;;;;;;;1718832;82;26314;-53
2022/06/22 02:46:45;;;;;;;1.10;1.10;;;;;;;;;;1709499;82;26379;-56
2022/06/22 02:49:17;;;;;;;1.20;1.17;;;;;;;;;;1719192;82;26374;-55
2022/06/22 02:51:46;;;;;;;1.20;1.20;;;;;;;;;;1718815;82;26401;-52
2022/06/22 02:54:17;;;;;;;1.22;1.22;;;;;;;;;;1712572;82;26787;-54
2022/06/22 02:56:47;;;;;;;1.20;1.20;;;;;;;;;;1710292;82;26350;-54
2022/06/22 02:59:15;;;;;;;1.20;1.20;;;;;;;;;;1732096;81;26694;-49
2022/06/22 03:01:42;;;;;;;1.30;1.30;;;;;;;;;;1693715;83;26316;-50
2022/06/22 03:04:11;;;;;;;1.17;1.17;;;;;;;;;;1712219;82;26308;-54
2022/06/22 03:06:40;;;;;;;1.35;1.27;;;;;;;;;;1710766;82;26315;-51
2022/06/22 03:09:08;;;;;;;1.02;1.02;;;;;;;;;;1714155;82;26394;-54
2022/06/22 03:11:40;;;;;;;1.30;1.30;;;;;;;;;;1719469;82;26599;-53
2022/06/22 03:14:08;;;;;;;1.25;1.25;;;;;;;;;;1716346;82;26423;-54
2022/06/22 03:16:37;;;;;;;1.20;1.20;;;;;;;;;;1722934;81;26311;-54
2022/06/22 03:19:06;;;;;;;1.20;1.20;;;;;;;;;;1726389;81;26242;-55
2022/06/22 03:21:33;;;;;;;1.45;1.35;;;;;;;;;;1760008;80;26224;-50
2022/06/22 03:24:06;;;;;;;1.20;1.20;;;;;;;;;;1774611;79;26737;-53
2022/06/22 03:26:38;;;;;;;1.10;1.10;;;;;;;;;;1735356;81;26327;-52
2022/06/22 03:29:06;;;;;;;1.40;1.30;;;;;;;;;;1771171;79;26709;-55
2022/06/22 03:31:41;;;;;;;1.10;1.10;;;;;;;;;;1752417;79;26768;-51
2022/06/22 03:34:10;;;;;;;1.20;1.10;;;;;;;;;;1766250;79;26298;-50
2022/06/22 03:36:39;;;;;;;1.30;1.30;;;;;;;;;;1768043;79;26386;-53
2022/06/22 03:39:08;;;;;;;1.12;1.12;;;;;;;;;;1777336;79;26743;-52
2022/06/22 03:41:37;;;;;;;1.22;1.22;;;;;;;;;;1748094;81;26746;-53
2022/06/22 03:44:08;;;;;;;1.20;1.20;;;;;;;;;;1746548;81;26418;-52
2022/06/22 03:46:55;;;;;;;1.10;1.10;;;;;;;;;;1754037;80;26275;-54
2022/06/22 03:49:24;;;;;;;1.05;1.05;;;;;;;;;;1751358;80;26378;-52
2022/06/22 03:51:53;;;;;;;1.10;1.10;;;;;;;;;;1771814;79;26765;-55
2022/06/22 03:54:34;;;;;;;1.17;1.17;;;;;;;;;;1769201;79;26769;-51
2022/06/22 03:57:03;;;;;;;1.30;1.30;;;;;;;;;;1736115;81;26360;-51
2022/06/22 03:59:32;;;;;;;1.22;1.22;;;;;;;;;;1760311;81;26321;-56
2022/06/22 04:01:59;;;;;;;1.20;1.20;;;;;;;;;;1749525;80;26309;-52
2022/06/22 04:04:27;;;;;;;1.10;1.10;;;;;;;;;;1749515;80;26292;-56
2022/06/22 04:06:55;;;;;;;1.10;1.10;;;;;;;;;;1745886;80;26313;-52
2022/06/22 04:09:23;;;;;;;1.40;1.40;;;;;;;;;;1748944;80;26353;-53
2022/06/22 04:11:55;;;;;;;1.30;1.30;;;;;;;;;;1776543;79;26282;-50
2022/06/22 04:14:24;;;;;;;1.20;1.20;;;;;;;;;;1786659;79;26283;-52
2022/06/22 04:16:53;;;;;;;1.30;1.25;;;;;;;;;;1755537;80;26946;-53
2022/06/22 04:19:27;;;;;;;1.27;1.27;;;;;;;;;;1760085;80;26906;-50
2022/06/22 04:21:56;;;;;;;1.20;1.20;;;;;;;;;;1736681;81;26854;-49
2022/06/22 04:24:25;;;;;;;1.30;1.20;;;;;;;;;;1759434;80;26781;-53
2022/06/22 04:27:03;;;;;;;1.30;1.30;;;;;;;;;;1751739;80;26750;-53
2022/06/22 04:29:41;;;;;;;1.30;1.30;;;;;;;;;;1752103;80;26305;-52
2022/06/22 04:32:12;;;;;;;1.30;1.25;;;;;;;;;;1751801;80;26449;-51
2022/06/22 04:34:45;;;;;;;1.30;1.30;;;;;;;;;;1741951;80;26341;-55
2022/06/22 04:37:20;;;;;;;1.15;1.15;;;;;;;;;;1752298;80;26324;-52
2022/06/22 04:39:49;;;;;;;1.30;1.30;;;;;;;;;;1748742;80;26332;-56
2022/06/22 04:42:16;;;;;;;1.30;1.30;;;;;;;;;;1754571;80;26278;-52
2022/06/22 04:44:49;;;;;;;1.12;1.12;;;;;;;;;;1748323;80;26932;-54
2022/06/22 04:47:18;;;;;;;1.45;1.35;;;;;;;;;;1748757;80;27425;-53
2022/06/22 04:49:52;;;;;;;1.20;1.20;;;;;;;;;;1749410;80;26380;-54
2022/06/22 04:52:21;;;;;;;1.35;1.35;;;;;;;;;;1759946;80;26391;-53
2022/06/22 04:54:50;;;;;;;1.20;1.20;;;;;;;;;;1740257;80;26772;-55
2022/06/22 04:57:19;;;;;;;1.20;1.20;;;;;;;;;;1743917;80;26787;-54
2022/06/22 04:59:47;;;;;;;1.25;1.25;;;;;;;;;;1770968;79;26646;-52
2022/06/22 05:02:16;;;;;;;1.10;1.10;;;;;;;;;;1767343;79;26355;-55
2022/06/22 05:04:45;;;;;;;1.30;1.30;;;;;;;;;;1748693;80;26283;-58
2022/06/22 05:07:19;;;;;;;1.10;1.10;;;;;;;;;;1759612;80;26298;-54
2022/06/22 05:09:51;;;;;;;1.10;1.10;;;;;;;;;;1776097;79;26749;-54
2022/06/22 05:12:19;;;;;;;1.15;1.15;;;;;;;;;;1779923;79;26752;-54
2022/06/22 05:14:48;;;;;;;2.25;1.12;;;;;;;;;;1798280;79;26368;-55
2022/06/22 05:17:17;;;;;;;1.10;1.10;;;;;;;;;;1766319;79;26749;-54
2022/06/22 05:20:03;;;;;;;1.22;1.20;;;;;;;;;;1778130;79;26348;-55
2022/06/22 05:22:30;;;;;;;1.20;1.20;;;;;;;;;;1771181;79;27950;-55
2022/06/22 05:24:59;;;;;;;1.30;1.30;;;;;;;;;;1777019;79;27260;-56
2022/06/22 05:27:28;;;;;;;1.30;1.30;;;;;;;;;;1779670;79;26377;-59
2022/06/22 05:29:59;;;;;;;1.30;1.20;;;;;;;;;;1778899;79;26967;-55
2022/06/22 05:32:28;;;;;;;2.45;1.22;;;;;;;;;;1750994;80;26743;-55
2022/06/22 05:34:56;;;;;;;1.22;1.22;;;;;;;;;;1750522;80;27503;-53
2022/06/22 05:37:25;;;;;;;1.40;1.40;;;;;;;;;;1758998;80;26291;-51
2022/06/22 05:39:53;;;;;;;1.50;1.40;;;;;;;;;;1761947;80;26317;-53
2022/06/22 05:42:20;;;;;;;1.40;1.30;;;;;;;;;;1778285;80;26288;-53
2022/06/22 05:44:47;;;;;;;1.35;1.35;;;;;;;;;;1772193;80;26391;-55
2022/06/22 05:47:27;;;;;;;1.70;1.60;;;;;;;;;;1764328;80;26769;-54
2022/06/22 05:49:56;;;;;;;1.30;1.20;;;;;;;;;;1761969;80;26369;-52
2022/06/22 05:52:25;;;;;;;1.40;1.30;;;;;;;;;;1758663;80;26815;-51
2022/06/22 05:54:56;;;;;;;1.17;1.17;;;;;;;;;;1753499;80;27546;-54
2022/06/22 05:57:39;;;;;;;1.40;1.30;;;;;;;;;;1761258;80;26377;-56
2022/06/22 06:00:08;;;;;;;1.20;1.20;;;;;;;;;;1757605;80;26731;-51
2022/06/22 06:02:43;;;;;;;1.30;1.20;;;;;;;;;;1756025;80;26331;-55
2022/06/22 06:05:14;;;;;;;1.30;1.30;;;;;;;;;;1755167;80;26439;-50
2022/06/22 06:07:52;;;;;;;1.40;1.30;;;;;;;;;;1761228;80;26923;-54
2022/06/22 06:10:21;;;;;;;1.22;1.22;;;;;;;;;;1760959;80;26278;-51
2022/06/22 06:13:07;;;;;;;1.60;1.50;;;;;;;;;;1763347;80;26353;-49
2022/06/22 06:15:36;;;;;;;1.20;1.20;;;;;;;;;;1759778;79;26302;-51
2022/06/22 06:18:05;;;;;;;1.52;1.40;;;;;;;;;;1756675;80;26291;-49
2022/06/22 06:20:37;;;;;;;2.02;1.40;;;;;;;;;;1757116;80;26229;-52
2022/06/22 06:23:05;;;;;;;2.85;1.55;;;;;;;;;;1768131;79;26329;-50
2022/06/22 06:28:27;;;;;;;2.33;1.32;;;;;;;;;;1768738;79;26821;-50
2022/06/22 06:30:57;;;;;;;2.27;1.22;;;;;;;;;;1762993;79;26317;-49
2022/06/22 06:33:34;;;;;;;1.60;1.50;;;;;;;;;;1775056;79;26364;-49
2022/06/22 06:36:03;;;;;;;4.03;1.30;;;;;;;;;;1751662;80;26284;-48
2022/06/22 06:38:35;;;;;;;1.15;1.15;;;;;;;;;;1774871;79;26282;-49
2022/06/22 06:41:04;;;;;;;2.80;1.50;;;;;;;;;;1767730;79;26348;-49
2022/06/22 06:43:47;;;;;;;2.58;1.60;;;;;;;;;;1777024;79;26365;-53
2022/06/22 06:46:16;;;;;;;1.47;1.30;;;;;;;;;;1773205;79;26359;-46
2022/06/22 06:48:45;;;;;;;1.77;1.35;;;;;;;;;;1775897;79;26807;-50
2022/06/22 06:51:14;;;;;;;2.45;1.32;;;;;;;;;;1772304;79;26861;-49
2022/06/22 06:53:49;;;;;;;1.70;1.40;;;;;;;;;;1768434;79;26616;-49
2022/06/22 06:56:20;;;;;;;2.67;1.40;;;;;;;;;;1774400;79;26741;-50
2022/06/22 06:58:49;;;;;;;2.50;1.70;;;;;;;;;;1741883;79;26296;-51
2022/06/22 07:01:21;;;;;;;2.25;1.42;;;;;;;;;;1777843;79;26825;-48
2022/06/22 07:03:50;;;;;;;2.15;1.40;;;;;;;;;;1749782;81;26775;-48
2022/06/22 07:06:18;;;;;;;1.30;1.20;;;;;;;;;;1747794;80;26677;-48
2022/06/22 07:08:52;;;;;;;1.40;1.30;;;;;;;;;;1746444;80;26355;-50
2022/06/22 07:11:31;;;;;;;1.45;1.40;;;;;;;;;;1764844;80;26278;-49
2022/06/22 07:13:55;;;;;;;1.40;1.30;;;;;;;;;;1763012;80;26407;-51
2022/06/22 07:16:25;;;;;;;2.12;1.40;;;;;;;;;;1759775;80;26298;-47
2022/06/22 07:19:03;;;;;;;1.27;1.20;;;;;;;;;;1766436;80;26819;-47
2022/06/22 07:21:38;;;;;;;1.42;1.37;;;;;;;;;;1756581;80;26286;-55
2022/06/22 07:24:10;;;;;;;1.65;1.10;;;;;;;;;;1760313;80;26294;-48
2022/06/22 07:26:39;;;;;;;1.60;1.25;;;;;;;;;;1761312;80;26298;-49
2022/06/22 07:29:07;;;;;;;8.60;1.72;;;;;;;;;;1760163;80;26287;-48
2022/06/22 07:31:36;;;;;;;7.90;1.40;;;;;;;;;;1757545;80;26307;-49
2022/06/22 07:34:05;;;;;;;15.48;1.60;;;;;;;;;;1766047;80;26306;-48
2022/06/22 07:36:34;;;;;;;5.80;1.55;;;;;;;;;;1753718;80;26380;-50
2022/06/22 07:39:02;;;;;;;3.95;1.42;;;;;;;;;;1765532;80;26341;-48
2022/06/22 07:41:31;;;;;;;23.75;2.60;;;;;;;;;;1755733;80;26353;-48
2022/06/22 07:44:04;;;;;;;23.18;2.20;;;;;;;;;;1762375;80;26357;-46
2022/06/22 07:46:35;;;;;;;14.35;1.92;;;;;;;;;;1765453;80;26765;-49
2022/06/22 07:49:04;;;;;;;18.70;2.22;;;;;;;;;;1768626;79;26878;-49
2022/06/22 07:51:33;;;;;;;10.55;1.90;;;;;;;;;;1761906;80;26745;-52
2022/06/22 07:54:01;;;;;;;7.87;1.70;;;;;;;;;;1763103;80;26308;-49
2022/06/22 07:56:30;;;;;;;15.98;2.08;;;;;;;;;;1766699;80;26355;-49
2022/06/22 07:59:08;;;;;;;19.45;1.92;;;;;;;;;;1754094;80;26300;-50
2022/06/22 08:01:37;;;;;;;10.58;1.50;;;;;;;;;;1763441;80;26304;-50
2022/06/22 08:04:18;;;;;;;13.05;1.90;;;;;;;;;;1762909;80;26458;-51
2022/06/22 08:06:53;;;;;;;8.35;2.20;;;;;;;;;;1762927;80;26365;-50
2022/06/22 08:09:25;;;;;;;11.83;1.72;;;;;;;;;;1756563;80;26341;-52
2022/06/22 08:11:53;;;;;;;11.60;1.80;;;;;;;;;;1754651;80;26332;-50
2022/06/22 08:14:22;;;;;;;16.35;1.62;;;;;;;;;;1754366;80;26297;-56
2022/06/22 08:16:51;;;;;;;7.97;1.72;;;;;;;;;;1771041;80;26761;-52
2022/06/22 08:19:19;;;;;;;4.10;1.52;;;;;;;;;;1769027;80;26759;-52
2022/06/22 08:21:49;;;;;;;3.98;1.30;;;;;;;;;;1768634;80;26302;-51
2022/06/22 08:24:18;;;;;;;4.78;1.47;;;;;;;;;;1780102;80;26341;-52
2022/06/22 08:26:46;;;;;;;8.33;1.50;;;;;;;;;;1759213;80;26289;-50
2022/06/22 08:29:15;;;;;;;3.65;1.40;;;;;;;;;;1768979;80;26304;-52
2022/06/22 08:31:49;;;;;;;6.67;1.50;;;;;;;;;;1745267;81;26717;-50
2022/06/22 08:34:18;;;;;;;6.75;1.40;;;;;;;;;;1752382;80;26394;-53
2022/06/22 08:36:49;;;;;;;4.33;1.40;;;;;;;;;;1749770;80;26398;-49
2022/06/22 08:39:37;;;;;;;3.15;1.65;;;;;;;;;;1761908;80;26743;-50
2022/06/22 08:42:15;;;;;;;2.58;1.30;;;;;;;;;;1779598;79;26313;-50
2022/06/22 08:44:59;;;;;;;4.55;1.40;;;;;;;;;;1780531;79;26863;-53
2022/06/22 08:47:28;;;;;;;6.45;1.50;;;;;;;;;;1740636;81;26335;-54
2022/06/22 08:50:13;;;;;;;1.92;1.27;;;;;;;;;;1767690;79;26279;-52
2022/06/22 08:52:58;;;;;;;1.50;1.40;;;;;;;;;;1756619;79;26350;-55
2022/06/22 08:55:35;;;;;;;3.22;1.37;;;;;;;;;;1771392;79;26372;-50
2022/06/22 08:58:22;;;;;;;4.33;1.40;;;;;;;;;;1770747;80;26352;-49
2022/06/22 09:00:51;;;;;;;6.70;1.90;;;;;;;;;;1755595;81;26330;-53
2022/06/22 09:03:32;;;;;;;3.52;1.45;;;;;;;;;;1755524;79;26282;-54
2022/06/22 09:06:16;;;;;;;1.52;1.30;;;;;;;;;;1761013;80;26282;-48
2022/06/22 09:08:57;;;;;;;2.50;1.30;;;;;;;;;;1756577;79;26785;-48
2022/06/22 09:11:35;;;;;;;3.47;1.47;;;;;;;;;;1775416;79;26283;-48
2022/06/22 09:14:20;;;;;;;3.55;1.40;;;;;;;;;;1783943;79;26411;-56
2022/06/22 09:16:50;;;;;;;4.60;1.30;;;;;;;;;;1769580;79;26377;-58
2022/06/22 09:19:18;;;;;;;3.95;1.60;;;;;;;;;;1765436;79;26290;-52
2022/06/22 09:21:47;;;;;;;3.52;1.62;;;;;;;;;;1770355;79;26298;-53
2022/06/22 09:24:16;;;;;;;1.70;1.55;;;;;;;;;;1767545;79;26311;-56
2022/06/22 09:26:57;;;;;;;1.95;1.40;;;;;;;;;;1773559;79;26309;-55
2022/06/22 09:29:35;;;;;;;2.77;1.52;;;;;;;;;;1768495;79;26750;-51
2022/06/22 09:32:10;;;;;;;2.65;1.40;;;;;;;;;;1777785;79;26360;-57
2022/06/22 09:34:55;;;;;;;1.70;1.60;;;;;;;;;;1768620;79;26371;-51
2022/06/22 09:37:39;;;;;;;3.60;1.40;;;;;;;;;;1759302;79;26838;-53
2022/06/22 09:40:11;;;;;;;1.87;1.40;;;;;;;;;;1732052;81;27313;-53
2022/06/22 09:43:00;;;;;;;1.60;1.50;;;;;;;;;;1777770;79;26476;-51
2022/06/22 09:45:36;;;;;;;1.60;1.52;;;;;;;;;;1781253;79;26832;-54
2022/06/22 09:48:05;;;;;;;1.77;1.37;;;;;;;;;;1762493;80;26841;-50
2022/06/22 09:50:48;;;;;;;1.40;1.30;;;;;;;;;;1754109;81;27239;-51
2022/06/22 09:53:33;;;;;;;1.50;1.40;;;;;;;;;;1747812;81;26394;-49
2022/06/22 09:56:27;;;;;;;1.57;1.32;;;;;;;;;;1748879;80;26317;-49
2022/06/22 09:59:15;;;;;;;2.70;1.47;;;;;;;;;;1748837;80;26593;-49
2022/06/22 10:02:00;;;;;;;2.52;1.30;;;;;;;;;;1747232;80;26748;-55
2022/06/22 10:04:41;;;;;;;2.30;1.35;;;;;;;;;;1753433;80;26616;-55
2022/06/22 10:07:13;;;;;;;4.85;1.60;;;;;;;;;;1749407;80;26583;-56
2022/06/22 10:09:48;;;;;;;1.35;1.30;;;;;;;;;;1775098;79;26818;-54
2022/06/22 10:12:17;;;;;;;2.40;1.40;;;;;;;;;;1742021;81;26313;-55
2022/06/22 10:15:03;;;;;;;1.47;1.37;;;;;;;;;;1757532;80;26421;-52
2022/06/22 10:17:31;;;;;;;1.75;1.40;;;;;;;;;;1784753;79;27359;-51
2022/06/22 10:20:00;;;;;;;1.50;1.50;;;;;;;;;;1766012;79;26298;-54
2022/06/22 10:22:38;;;;;;;2.12;1.50;;;;;;;;;;1785086;79;26302;-55
2022/06/22 10:25:16;;;;;;;5.70;1.80;;;;;;;;;;1780423;79;26329;-53
2022/06/22 10:27:54;;;;;;;2.00;1.90;;;;;;;;;;1777951;79;26370;-54
2022/06/22 10:30:35;;;;;;;2.67;1.90;;;;;;;;;;1718708;82;26335;-57
2022/06/22 10:33:10;;;;;;;2.72;2.20;;;;;;;;;;1748734;79;26394;-51
2022/06/22 10:35:39;;;;;;;2.83;2.20;;;;;;;;;;1771288;79;26317;-56
2022/06/22 10:38:25;;;;;;;3.05;2.20;;;;;;;;;;1737249;81;26297;-54
2022/06/22 10:47:08;;;;;;;2.35;2.15;;;;;;;;;;1744167;80;26811;-55
2022/06/22 10:49:52;;;;;;;5.40;2.00;;;;;;;;;;1757281;80;26679;-52
2022/06/22 10:52:21;;;;;;;1.90;1.80;;;;;;;;;;1757193;80;26283;-58
2022/06/22 10:54:49;;;;;;;1.85;1.75;;;;;;;;;;1754901;80;26363;-55
2022/06/22 10:57:21;;;;;;;1.90;1.80;;;;;;;;;;1768962;80;26366;-55
2022/06/22 10:59:52;;;;;;;1.80;1.70;;;;;;;;;;1765355;79;26290;-55
2022/06/22 11:02:38;;;;;;;1.80;1.70;;;;;;;;;;1760217;80;26777;-50
2022/06/22 11:05:16;;;;;;;1.92;1.80;;;;;;;;;;1761709;80;26795;-60
2022/06/22 11:07:45;;;;;;;1.80;1.70;;;;;;;;;;1754475;80;26370;-51
2022/06/22 11:10:23;;;;;;;1.87;1.77;;;;;;;;;;1757846;80;26298;-53
2022/06/22 11:12:54;;;;;;;1.45;1.37;;;;;;;;;;1758778;80;26350;-51
2022/06/22 11:15:37;;;;;;;1.98;1.60;;;;;;;;;;1757689;80;26288;-56
2022/06/22 11:18:08;;;;;;;2.05;1.55;;;;;;;;;;1762264;80;26752;-54
2022/06/22 11:20:52;;;;;;;1.80;1.70;;;;;;;;;;1756977;80;26288;-50
2022/06/22 11:23:38;;;;;;;1.60;1.50;;;;;;;;;;1773942;80;26300;-51
2022/06/22 11:31:52;;;;;;;1.57;1.47;;;;;;;;;;1753601;80;26300;-48
2022/06/22 11:34:40;;;;;;;1.62;1.60;;;;;;;;;;1746268;80;26389;-57
2022/06/22 11:37:08;;;;;;;1.52;1.42;;;;;;;;;;1735708;81;26324;-55
2022/06/22 11:39:49;;;;;;;1.30;1.30;;;;;;;;;;1728844;81;26324;-53
2022/06/22 11:42:24;;;;;;;1.72;1.40;;;;;;;;;;1729090;81;26863;-49
2022/06/22 11:47:40;;;;;;;1.40;1.40;;;;;;;;;;1759827;80;26327;-52
2022/06/22 11:50:09;;;;;;;1.42;1.42;;;;;;;;;;1759534;80;26364;-57
2022/06/22 11:52:40;;;;;;;1.30;1.30;;;;;;;;;;1755180;80;26280;-52
2022/06/22 11:55:12;;;;;;;1.35;1.35;;;;;;;;;;1767002;80;26390;-49
2022/06/22 11:57:58;;;;;;;1.35;1.35;;;;;;;;;;1756264;80;26289;-50
2022/06/22 12:00:29;;;;;;;1.20;1.20;;;;;;;;;;1753310;80;26282;-54
2022/06/22 12:03:04;;;;;;;1.20;1.20;;;;;;;;;;1750449;80;26362;-52
2022/06/22 12:05:33;;;;;;;1.17;1.17;;;;;;;;;;1756468;80;26361;-52
2022/06/22 12:08:02;;;;;;;1.25;1.25;;;;;;;;;;1756509;80;26417;-57
2022/06/22 12:10:31;;;;;;;1.15;1.15;;;;;;;;;;1754367;80;26276;-54
2022/06/22 12:13:04;;;;;;;1.10;1.10;;;;;;;;;;1756439;80;26362;-55
2022/06/22 12:15:38;;;;;;;1.20;1.20;;;;;;;;;;1757754;80;26324;-56
2022/06/22 12:18:19;;;;;;;1.20;1.20;;;;;;;;;;1750509;80;26784;-56
2022/06/22 12:20:57;;;;;;;1.20;1.20;;;;;;;;;;1750344;81;26414;-55
2022/06/22 12:23:35;;;;;;;1.30;1.30;;;;;;;;;;1746759;80;26679;-57
2022/06/22 12:26:04;;;;;;;1.20;1.20;;;;;;;;;;1752049;80;26340;-53
2022/06/22 12:28:44;;;;;;;1.87;1.37;;;;;;;;;;1749286;80;28369;-54
2022/06/22 12:31:13;;;;;;;1.52;1.35;;;;;;;;;;1765687;80;26382;-46
2022/06/22 12:33:42;;;;;;;2.17;1.35;;;;;;;;;;1751537;80;26359;-55
2022/06/22 12:36:11;;;;;;;1.00;1.00;;;;;;;;;;1771036;80;26326;-58
2022/06/22 12:38:40;;;;;;;1.22;1.10;;;;;;;;;;1741733;80;26265;-56
2022/06/22 12:41:25;;;;;;;1.00;1.00;;;;;;;;;;1749416;80;26299;-55
2022/06/22 12:43:54;;;;;;;1.12;1.12;;;;;;;;;;1758213;80;26291;-54
2022/06/22 12:46:23;;;;;;;2.05;1.85;;;;;;;;;;1764076;80;26339;-49
2022/06/22 12:48:56;;;;;;;4.15;1.37;;;;;;;;;;1760112;80;26355;-55
2022/06/22 12:51:36;;;;;;;2.05;1.17;;;;;;;;;;1755859;80;26774;-56
2022/06/22 12:54:05;;;;;;;4.25;1.40;;;;;;;;;;1749163;80;27401;-56
2022/06/22 12:56:34;;;;;;;2.55;1.30;;;;;;;;;;1739957;81;26804;-56
2022/06/22 12:59:12;;;;;;;1.50;1.20;;;;;;;;;;1745600;80;26296;-56
2022/06/22 13:01:40;;;;;;;3.42;1.27;;;;;;;;;;1742793;80;26780;-57
2022/06/22 13:04:12;;;;;;;1.40;1.30;;;;;;;;;;1758110;80;26276;-52
2022/06/22 13:06:41;;;;;;;3.08;1.30;;;;;;;;;;1761671;80;26743;-60
2022/06/22 13:09:09;;;;;;;1.47;1.40;;;;;;;;;;1738890;82;26725;-58
2022/06/22 13:11:37;;;;;;;2.02;1.15;;;;;;;;;;1743073;80;26332;-56
2022/06/22 13:14:23;;;;;;;1.05;1.05;;;;;;;;;;1753424;80;26371;-58
2022/06/22 13:17:08;;;;;;;1.67;1.10;;;;;;;;;;1758787;80;26295;-53
2022/06/22 13:19:42;;;;;;;1.10;1.10;;;;;;;;;;1755497;80;26303;-57
2022/06/22 13:22:10;;;;;;;1.00;1.00;;;;;;;;;;1758077;80;26427;-60
2022/06/22 13:24:39;;;;;;;1.25;1.15;;;;;;;;;;1754888;80;26344;-56
2022/06/22 13:27:17;;;;;;;1.12;1.12;;;;;;;;;;1734231;81;26360;-56
2022/06/22 13:29:49;;;;;;;1.80;1.22;;;;;;;;;;1738218;81;26358;-58
2022/06/22 13:32:17;;;;;;;1.37;1.20;;;;;;;;;;1736127;81;26880;-58
2022/06/22 13:34:46;;;;;;;1.20;1.10;;;;;;;;;;1724251;81;26406;-61
2022/06/22 13:37:15;;;;;;;3.45;1.22;;;;;;;;;;1729119;81;26771;-54
2022/06/22 13:39:50;;;;;;;1.30;1.00;;;;;;;;;;1730828;81;27433;-56
2022/06/22 13:42:18;;;;;;;1.20;1.10;;;;;;;;;;1728449;81;26296;-57
2022/06/22 13:45:02;;;;;;;1.05;1.05;;;;;;;;;;1729658;81;27541;-55
2022/06/22 13:47:31;;;;;;;1.10;1.10;;;;;;;;;;1746026;80;26292;-58
2022/06/22 13:50:26;;;;;;;1.00;1.00;;;;;;;;;;1752709;80;26378;-59
2022/06/22 13:52:49;;;;;;;1.00;1.00;;;;;;;;;;1757850;80;26698;-55
2022/06/22 13:55:18;;;;;;;0.98;0.90;;;;;;;;;;1751639;80;26366;-57
2022/06/22 13:57:47;;;;;;;0.98;0.98;;;;;;;;;;1753629;80;26302;-54
2022/06/22 14:00:19;;;;;;;1.47;1.10;;;;;;;;;;1743133;80;26331;-54
2022/06/22 14:03:03;;;;;;;1.00;1.00;;;;;;;;;;1764750;80;26386;-50
2022/06/22 14:05:44;;;;;;;1.17;1.17;;;;;;;;;;1762340;80;26393;-53
2022/06/22 14:08:30;;;;;;;1.85;1.32;;;;;;;;;;1765141;80;27114;-55
2022/06/22 14:10:58;;;;;;;1.20;1.20;;;;;;;;;;1755413;80;26285;-55
2022/06/22 14:13:27;;;;;;;1.42;1.32;;;;;;;;;;1754946;80;26321;-57
2022/06/22 14:15:56;;;;;;;1.00;1.00;;;;;;;;;;1755133;80;26328;-53
2022/06/22 14:18:28;;;;;;;1.22;1.12;;;;;;;;;;1757203;80;26282;-53
2022/06/22 14:21:13;;;;;;;1.35;1.25;;;;;;;;;;1763558;79;26772;-54
2022/06/22 14:23:41;;;;;;;1.98;1.10;;;;;;;;;;1759125;80;26306;-51
2022/06/22 14:26:25;;;;;;;1.20;1.10;;;;;;;;;;1737303;80;26326;-51
2022/06/22 14:28:54;;;;;;;1.17;1.17;;;;;;;;;;1720349;82;26307;-48
2022/06/22 14:31:22;;;;;;;1.35;1.22;;;;;;;;;;1733248;81;26283;-52
2022/06/22 14:34:08;;;;;;;1.10;1.10;;;;;;;;;;1718340;82;26308;-49
2022/06/22 14:36:37;;;;;;;2.40;1.27;;;;;;;;;;1713822;82;26851;-58
2022/06/22 14:39:06;;;;;;;5.90;1.40;;;;;;;;;;1700400;82;26335;-56
2022/06/22 14:41:41;;;;;;;6.95;1.57;;;;;;;;;;1696318;83;26807;-54
2022/06/22 14:44:26;;;;;;;5.12;1.50;;;;;;;;;;1684821;83;29195;-54
2022/06/22 14:47:01;;;;;;;4.42;1.30;;;;;;;;;;1731802;81;26312;-51
2022/06/22 14:49:39;;;;;;;3.92;1.52;;;;;;;;;;1702956;82;26754;-53
2022/06/22 14:52:20;;;;;;;7.72;1.40;;;;;;;;;;1607270;87;28856;-56
2022/06/22 14:55:03;;;;;;;4.92;1.50;;;;;;;;;;1677660;83;29066;-49
2022/06/22 14:57:35;;;;;;;3.15;1.20;;;;;;;;;;1696420;83;26307;-53
2022/06/22 15:00:08;;;;;;;1.35;1.20;;;;;;;;;;1689394;83;26365;-55
2022/06/22 15:02:39;;;;;;;2.67;1.20;;;;;;;;;;1754741;81;26265;-54
2022/06/22 15:05:17;;;;;;;12.50;1.27;;;;;;;;;;1709654;82;26273;-51
2022/06/22 15:07:49;;;;;;;2.58;1.10;;;;;;;;;;1708920;82;26343;-52
2022/06/22 15:10:16;;;;;;;6.80;1.42;;;;;;;;;;1719083;82;26731;-54
2022/06/22 15:12:57;;;;;;;11.60;1.67;;;;;;;;;;1720290;82;26299;-54
2022/06/22 15:15:29;;;;;;;8.65;1.50;;;;;;;;;;1717062;82;26263;-53
2022/06/22 15:18:14;;;;;;;13.35;2.12;;;;;;;;;;1717582;82;26363;-53
2022/06/22 15:20:43;;;;;;;8.68;1.20;;;;;;;;;;1714936;82;26277;-54
2022/06/22 15:23:12;;;;;;;7.85;1.60;;;;;;;;;;1715677;82;26944;-56
2022/06/22 15:25:41;;;;;;;12.33;1.50;;;;;;;;;;1724468;80;26779;-57
2022/06/22 15:28:16;;;;;;;13.30;1.55;;;;;;;;;;1755149;80;26368;-47
2022/06/22 15:30:44;;;;;;;11.60;1.42;;;;;;;;;;1754983;80;26403;-52
2022/06/22 15:33:13;;;;;;;14.18;1.50;;;;;;;;;;1771699;79;26242;-50
2022/06/22 15:35:45;;;;;;;2.33;1.10;;;;;;;;;;1746246;80;26374;-50
2022/06/22 15:38:14;;;;;;;5.60;1.17;;;;;;;;;;1788885;79;26356;-53
2022/06/22 15:40:52;;;;;;;6.45;1.32;;;;;;;;;;1778257;79;26360;-50
2022/06/22 15:43:21;;;;;;;3.75;1.00;;;;;;;;;;1750057;80;26855;-52